sensor_id;sensor_type;location;lat;lon;timestamp;pressure;altitude;pressure_sealevel;temperature;humidity
75063;BME280;63981;51.052;13.754;2022-11-15T00:02:07;100356.66;;;7.32;87.74
75063;BME280;63981;51.052;13.754;2022-11-15T00:05:26;100365.56;;;7.28;87.44
75063;BME280;63981;51.052;13.754;2022-11-15T00:08:45;100359.38;;;7.26;87.33
75063;BME280;63981;51.052;13.754;2022-11-15T00:12:04;100358.69;;;7.17;87.55
75063;BME280;63981;51.052;13.754;2022-11-15T00:15:23;100352.94;;;7.19;88.48
75063;BME280;63981;51.052;13.754;2022-11-15T00:18:42;100342.13;;;7.17;88.53
75063;BME280;63981;51.052;13.754;2022-11-15T00:22:02;100300.28;;;6.86;88.59
75063;BME280;63981;51.052;13.754;2022-11-15T00:25:21;100350.59;;;7.16;88.60
75063;BME280;63981;51.052;13.754;2022-11-15T00:28:41;100348.03;;;7.08;88.83
75063;BME280;63981;51.052;13.754;2022-11-15T00:32:00;100348.22;;;7.06;88.87
75063;BME280;63981;51.052;13.754;2022-11-15T00:35:19;100350.31;;;6.97;88.86
75063;BME280;63981;51.052;13.754;2022-11-15T00:38:39;100346.06;;;7.02;89.06
75063;BME280;63981;51.052;13.754;2022-11-15T00:41:59;100332.88;;;6.97;88.90
75063;BME280;63981;51.052;13.754;2022-11-15T00:45:17;100328.41;;;6.96;89.01
75063;BME280;63981;51.052;13.754;2022-11-15T00:48:37;100335.69;;;7.04;89.10
75063;BME280;63981;51.052;13.754;2022-11-15T00:51:56;100341.59;;;7.01;88.48
75063;BME280;63981;51.052;13.754;2022-11-15T00:55:16;100342.00;;;6.97;89.48
75063;BME280;63981;51.052;13.754;2022-11-15T00:58:35;100335.44;;;6.99;88.55
75063;BME280;63981;51.052;13.754;2022-11-15T01:01:54;100333.44;;;6.86;89.08
75063;BME280;63981;51.052;13.754;2022-11-15T01:05:14;100331.09;;;6.83;89.30
75063;BME280;63981;51.052;13.754;2022-11-15T01:08:33;100331.72;;;6.85;89.45
75063;BME280;63981;51.052;13.754;2022-11-15T01:11:52;100324.28;;;6.85;89.40
75063;BME280;63981;51.052;13.754;2022-11-15T01:15:11;100314.03;;;7.14;89.09
75063;BME280;63981;51.052;13.754;2022-11-15T01:18:31;100316.50;;;6.95;89.54
75063;BME280;63981;51.052;13.754;2022-11-15T01:21:49;100321.13;;;7.29;88.86
75063;BME280;63981;51.052;13.754;2022-11-15T01:25:08;100325.63;;;6.96;88.85
75063;BME280;63981;51.052;13.754;2022-11-15T01:28:31;100318.25;;;7.03;89.59
75063;BME280;63981;51.052;13.754;2022-11-15T01:31:52;100310.16;;;7.02;88.58
75063;BME280;63981;51.052;13.754;2022-11-15T01:35:12;100305.69;;;7.01;89.34
75063;BME280;63981;51.052;13.754;2022-11-15T01:38:31;100305.28;;;7.64;91.18
75063;BME280;63981;51.052;13.754;2022-11-15T01:41:50;100298.09;;;7.16;89.08
75063;BME280;63981;51.052;13.754;2022-11-15T01:45:13;100295.78;;;7.87;90.57
75063;BME280;63981;51.052;13.754;2022-11-15T01:48:33;100301.63;;;7.44;87.71
75063;BME280;63981;51.052;13.754;2022-11-15T01:51:53;100289.06;;;7.42;88.18
75063;BME280;63981;51.052;13.754;2022-11-15T01:55:14;100283.13;;;7.45;87.02
75063;BME280;63981;51.052;13.754;2022-11-15T01:58:34;100278.66;;;7.37;88.29
75063;BME280;63981;51.052;13.754;2022-11-15T02:01:54;100270.34;;;7.37;88.24
75063;BME280;63981;51.052;13.754;2022-11-15T02:05:13;100273.75;;;7.39;87.63
75063;BME280;63981;51.052;13.754;2022-11-15T02:08:33;100269.94;;;7.47;88.13
75063;BME280;63981;51.052;13.754;2022-11-15T02:11:52;100272.31;;;7.56;87.27
75063;BME280;63981;51.052;13.754;2022-11-15T02:15:13;100273.84;;;7.78;86.93
75063;BME280;63981;51.052;13.754;2022-11-15T02:18:37;100268.22;;;7.32;87.68
75063;BME280;63981;51.052;13.754;2022-11-15T02:29:11;100261.91;;;7.65;88.30
75063;BME280;63981;51.052;13.754;2022-11-15T02:39:19;100255.84;;;7.22;88.00
75063;BME280;63981;51.052;13.754;2022-11-15T02:42:48;100243.28;;;7.13;88.50
75063;BME280;63981;51.052;13.754;2022-11-15T02:46:31;100237.13;;;7.17;89.06
75063;BME280;63981;51.052;13.754;2022-11-15T02:50:10;100228.63;;;7.25;88.42
75063;BME280;63981;51.052;13.754;2022-11-15T02:53:30;100237.34;;;7.22;88.33
75063;BME280;63981;51.052;13.754;2022-11-15T02:56:51;100235.44;;;7.23;88.12
75063;BME280;63981;51.052;13.754;2022-11-15T03:00:12;100222.63;;;7.09;88.93
75063;BME280;63981;51.052;13.754;2022-11-15T03:06:55;100231.38;;;7.19;88.78
75063;BME280;63981;51.052;13.754;2022-11-15T03:10:21;100224.78;;;7.20;88.49
75063;BME280;63981;51.052;13.754;2022-11-15T03:13:47;100224.78;;;7.20;88.54
75063;BME280;63981;51.052;13.754;2022-11-15T03:17:28;100219.69;;;7.17;88.75
75063;BME280;63981;51.052;13.754;2022-11-15T03:20:48;100223.28;;;7.11;88.95
75063;BME280;63981;51.052;13.754;2022-11-15T03:24:08;100214.97;;;7.11;88.89
75063;BME280;63981;51.052;13.754;2022-11-15T03:27:30;100213.06;;;7.11;88.86
75063;BME280;63981;51.052;13.754;2022-11-15T03:30:52;100212.84;;;7.06;89.14
75063;BME280;63981;51.052;13.754;2022-11-15T03:34:19;100205.63;;;7.05;88.99
75063;BME280;63981;51.052;13.754;2022-11-15T03:40:59;100209.03;;;7.07;88.50
75063;BME280;63981;51.052;13.754;2022-11-15T03:47:52;100206.03;;;7.02;89.28
75063;BME280;63981;51.052;13.754;2022-11-15T03:51:12;100199.00;;;6.93;88.99
75063;BME280;63981;51.052;13.754;2022-11-15T03:54:32;100203.72;;;7.06;88.42
75063;BME280;63981;51.052;13.754;2022-11-15T03:57:53;100197.09;;;7.00;88.96
75063;BME280;63981;51.052;13.754;2022-11-15T04:01:14;100194.56;;;6.99;89.16
75063;BME280;63981;51.052;13.754;2022-11-15T04:04:33;100192.84;;;6.97;88.78
75063;BME280;63981;51.052;13.754;2022-11-15T04:07:52;100185.19;;;6.93;88.68
75063;BME280;63981;51.052;13.754;2022-11-15T04:11:10;100187.09;;;6.92;89.07
75063;BME280;63981;51.052;13.754;2022-11-15T04:14:29;100181.78;;;6.91;88.50
75063;BME280;63981;51.052;13.754;2022-11-15T04:17:49;100187.09;;;6.99;88.67
75063;BME280;63981;51.052;13.754;2022-11-15T04:21:09;100167.50;;;6.74;89.49
75063;BME280;63981;51.052;13.754;2022-11-15T04:24:47;100186.88;;;6.87;89.33
75063;BME280;63981;51.052;13.754;2022-11-15T04:28:06;100184.72;;;6.89;88.71
75063;BME280;63981;51.052;13.754;2022-11-15T04:31:26;100177.53;;;6.95;89.17
75063;BME280;63981;51.052;13.754;2022-11-15T04:34:45;100176.91;;;6.93;89.21
75063;BME280;63981;51.052;13.754;2022-11-15T04:38:05;100181.16;;;6.95;88.36
75063;BME280;63981;51.052;13.754;2022-11-15T04:41:25;100173.50;;;6.97;88.54
75063;BME280;63981;51.052;13.754;2022-11-15T04:44:44;100167.13;;;6.97;88.74
75063;BME280;63981;51.052;13.754;2022-11-15T04:48:03;100169.28;;;7.02;88.72
75063;BME280;63981;51.052;13.754;2022-11-15T04:51:22;100171.59;;;6.98;88.71
75063;BME280;63981;51.052;13.754;2022-11-15T04:54:41;100167.97;;;6.91;89.24
75063;BME280;63981;51.052;13.754;2022-11-15T04:58:01;100174.13;;;6.93;88.75
75063;BME280;63981;51.052;13.754;2022-11-15T05:01:21;100172.44;;;6.92;88.73
75063;BME280;63981;51.052;13.754;2022-11-15T05:04:40;100169.25;;;6.88;88.67
75063;BME280;63981;51.052;13.754;2022-11-15T05:07:59;100163.25;;;6.85;89.44
75063;BME280;63981;51.052;13.754;2022-11-15T05:11:18;100157.72;;;6.85;89.35
75063;BME280;63981;51.052;13.754;2022-11-15T05:14:37;100155.81;;;6.85;88.69
75063;BME280;63981;51.052;13.754;2022-11-15T05:17:57;100157.94;;;6.77;89.56
75063;BME280;63981;51.052;13.754;2022-11-15T05:21:17;100167.69;;;6.79;89.33
75063;BME280;63981;51.052;13.754;2022-11-15T05:24:36;100139.66;;;6.69;89.46
75063;BME280;63981;51.052;13.754;2022-11-15T05:27:55;100150.06;;;6.74;89.91
75063;BME280;63981;51.052;13.754;2022-11-15T05:31:15;100143.47;;;6.68;89.53
75063;BME280;63981;51.052;13.754;2022-11-15T05:34:35;100152.19;;;6.72;89.13
75063;BME280;63981;51.052;13.754;2022-11-15T05:37:54;100145.41;;;6.81;89.07
75063;BME280;63981;51.052;13.754;2022-11-15T05:41:13;100146.53;;;6.93;89.29
75063;BME280;63981;51.052;13.754;2022-11-15T05:44:33;100149.75;;;7.03;89.76
75063;BME280;63981;51.052;13.754;2022-11-15T05:47:53;100147.31;;;6.80;88.40
75063;BME280;63981;51.052;13.754;2022-11-15T05:51:15;100154.31;;;6.76;88.67
75063;BME280;63981;51.052;13.754;2022-11-15T05:54:36;100158.81;;;6.84;89.27
75063;BME280;63981;51.052;13.754;2022-11-15T05:57:56;63428.47;;;-145.10;100.00
75063;BME280;63981;51.052;13.754;2022-11-15T06:01:15;63428.47;;;-145.10;100.00
75063;BME280;63981;51.052;13.754;2022-11-15T06:04:34;63428.47;;;-145.10;100.00
75063;BME280;63981;51.052;13.754;2022-11-15T06:07:56;63428.47;;;-145.10;100.00
75063;BME280;63981;51.052;13.754;2022-11-15T06:11:16;63428.47;;;-145.10;100.00
75063;BME280;63981;51.052;13.754;2022-11-15T06:14:35;63428.47;;;-145.10;100.00
